createdAt,value
2019-02-07T00:03:38.834Z,0
2019-02-07T00:07:17.594Z,0
2019-02-07T00:11:43.810Z,0
2019-02-07T00:14:23.804Z,0
2019-02-07T00:15:24.579Z,0
2019-02-07T00:46:19.713Z,0
2019-02-07T00:47:18.422Z,0
2019-02-07T00:48:17.022Z,0
2019-02-07T00:49:15.580Z,0
2019-02-07T00:50:14.116Z,0
2019-02-07T00:51:12.685Z,0
2019-02-07T00:52:11.216Z,0
2019-02-07T00:55:50.188Z,0
2019-02-07T00:56:48.924Z,0
2019-02-07T00:59:28.975Z,0
2019-02-07T01:10:27.113Z,0
2019-02-07T01:14:06.042Z,0
2019-02-07T01:24:34.905Z,0
2019-02-07T01:27:15.222Z,0
2019-02-07T01:28:13.805Z,0
2019-02-07T01:29:12.525Z,0
2019-02-07T01:30:11.201Z,0
2019-02-07T01:31:09.795Z,0
2019-02-07T01:32:08.371Z,0
2019-02-07T01:33:06.901Z,0
2019-02-07T01:34:05.470Z,0
2019-02-07T01:37:44.067Z,0
2019-02-07T01:40:07.099Z,0
2019-02-07T01:41:05.617Z,0
2019-02-07T01:42:04.264Z,0
2019-02-07T01:43:02.816Z,0
2019-02-07T01:46:41.573Z,0
2019-02-07T01:47:40.113Z,0
2019-02-07T01:48:38.717Z,0
2019-02-07T01:49:37.265Z,0
2019-02-07T02:14:40.425Z,0
2019-02-07T02:15:39.204Z,0
2019-02-07T02:19:18.071Z,0
2019-02-07T02:22:02.326Z,0
2019-02-07T02:42:22.183Z,0
2019-02-07T02:43:20.990Z,0
2019-02-07T02:44:19.569Z,0
2019-02-07T02:45:18.161Z,0
2019-02-07T02:46:16.765Z,0
2019-02-07T02:47:15.294Z,0
2019-02-07T02:48:13.884Z,0
2019-02-07T02:50:54.157Z,0
2019-02-07T02:51:52.788Z,0
2019-02-07T02:52:51.369Z,0
2019-02-07T02:56:29.968Z,0
2019-02-07T02:57:28.682Z,0
2019-02-07T03:24:34.628Z,0
2019-02-07T03:25:33.148Z,0
2019-02-07T03:26:31.750Z,0
2019-02-07T03:27:30.295Z,0
2019-02-07T03:28:29.086Z,0
2019-02-07T03:29:27.662Z,0
2019-02-07T03:30:26.321Z,0
2019-02-07T03:31:25.109Z,0
2019-02-07T03:32:33.935Z,0
2019-02-07T03:51:09.845Z,0
2019-02-07T04:09:29.720Z,0
2019-02-07T04:10:28.304Z,0
2019-02-07T04:11:30.974Z,0
2019-02-07T04:12:29.540Z,0
2019-02-07T04:13:28.062Z,0
2019-02-07T04:14:26.802Z,0
2019-02-07T04:19:48.343Z,0
2019-02-07T04:20:52.120Z,0
2019-02-07T04:24:31.104Z,0
2019-02-07T04:37:09.687Z,0
2019-02-07T04:40:57.410Z,0
2019-02-07T04:44:52.499Z,0
2019-02-07T04:45:51.114Z,0
2019-02-07T04:48:36.843Z,0
2019-02-07T04:49:35.415Z,0
2019-02-07T04:50:34.129Z,0
2019-02-07T04:51:33.102Z,0
2019-02-07T04:52:31.707Z,0
2019-02-07T04:53:30.414Z,0
2019-02-07T04:54:29.003Z,0
2019-02-07T04:55:27.561Z,0
2019-02-07T04:56:26.380Z,0
2019-02-07T04:57:25.143Z,0
2019-02-07T04:58:23.684Z,0
2019-02-07T04:59:22.267Z,0
2019-02-07T05:00:21.051Z,0
2019-02-07T05:01:19.579Z,0
2019-02-07T05:03:59.631Z,0
2019-02-07T05:07:44.570Z,0
2019-02-07T05:11:23.474Z,0
2019-02-07T05:12:22.020Z,0
2019-02-07T05:13:21.061Z,0
2019-02-07T05:14:20.096Z,0
2019-02-07T05:15:18.578Z,0
2019-02-07T05:16:17.331Z,0
2019-02-07T05:17:15.827Z,0
2019-02-07T05:19:56.137Z,0
2019-02-07T05:20:54.842Z,0
2019-02-07T05:21:55.406Z,0
2019-02-07T05:29:30.857Z,0
2019-02-07T05:30:29.460Z,0
2019-02-07T05:32:46.269Z,0
2019-02-07T05:35:01.891Z,0
2019-02-07T05:37:43.363Z,0
2019-02-07T05:40:07.228Z,0
2019-02-07T05:42:54.607Z,0
2019-02-07T05:45:44.198Z,0
2019-02-07T05:46:50.603Z,0
2019-02-07T05:49:23.148Z,0
2019-02-07T05:50:40.079Z,0
2019-02-07T05:51:48.784Z,0
2019-02-07T05:52:47.359Z,0
2019-02-07T05:55:27.630Z,0
2019-02-07T05:56:26.219Z,0
2019-02-07T05:57:24.973Z,0
2019-02-07T05:58:23.521Z,0
2019-02-07T06:01:03.977Z,0
2019-02-07T06:03:48.163Z,0
2019-02-07T06:25:42.311Z,0
2019-02-07T06:30:22.276Z,4
2019-02-07T06:31:20.900Z,0
2019-02-07T06:32:19.432Z,0
2019-02-07T06:33:18.011Z,4
2019-02-07T06:34:16.547Z,4
2019-02-07T06:35:15.100Z,4
2019-02-07T06:36:13.625Z,4
2019-02-07T06:37:12.290Z,4
2019-02-07T06:38:11.067Z,4
2019-02-07T06:39:09.641Z,8
2019-02-07T06:40:08.166Z,8
2019-02-07T06:41:06.872Z,8
2019-02-07T06:42:05.684Z,8
2019-02-07T06:43:05.351Z,16
2019-02-07T06:44:04.581Z,16
2019-02-07T06:45:02.483Z,20
2019-02-07T06:46:01.269Z,20
2019-02-07T06:46:59.895Z,20
2019-02-07T06:47:58.386Z,20
2019-02-07T06:48:57.131Z,24
2019-02-07T06:49:55.648Z,24
2019-02-07T06:50:54.217Z,24
2019-02-07T06:51:52.763Z,28
2019-02-07T06:52:51.478Z,36
2019-02-07T06:53:50.040Z,36
2019-02-07T06:54:48.651Z,36
2019-02-07T06:55:47.185Z,40
2019-02-07T06:56:45.763Z,40
2019-02-07T06:57:44.475Z,40
2019-02-07T06:58:43.157Z,44
2019-02-07T06:59:41.784Z,44
2019-02-07T07:00:40.340Z,48
2019-02-07T07:01:38.887Z,52
2019-02-07T07:02:37.439Z,52
2019-02-07T07:03:35.974Z,60
2019-02-07T07:04:34.597Z,68
2019-02-07T07:05:33.113Z,80
2019-02-07T07:06:31.680Z,96
2019-02-07T07:07:30.271Z,92
2019-02-07T07:08:29.112Z,88
2019-02-07T07:09:27.781Z,84
2019-02-07T07:12:34.174Z,88
2019-02-07T07:13:32.866Z,80
2019-02-07T07:14:31.403Z,80
2019-02-07T07:15:29.945Z,80
2019-02-07T07:16:28.579Z,84
2019-02-07T07:17:27.563Z,92
2019-02-07T07:18:25.921Z,96
2019-02-07T07:19:24.495Z,108
2019-02-07T07:20:23.249Z,116
2019-02-07T07:21:21.782Z,120
2019-02-07T07:22:20.397Z,124
2019-02-07T07:23:18.961Z,128
2019-02-07T07:24:17.538Z,132
2019-02-07T07:25:16.349Z,128
2019-02-07T07:26:15.124Z,124
2019-02-07T07:29:21.585Z,116
2019-02-07T07:30:20.070Z,116
2019-02-07T07:31:18.733Z,112
2019-02-07T07:32:17.354Z,112
2019-02-07T07:33:16.032Z,112
2019-02-07T07:34:14.734Z,116
2019-02-07T07:35:13.349Z,124
2019-02-07T07:36:11.889Z,140
2019-02-07T07:37:10.597Z,144
2019-02-07T07:38:09.335Z,148
2019-02-07T07:39:08.046Z,140
2019-02-07T07:40:06.614Z,140
2019-02-07T07:41:05.375Z,148
2019-02-07T07:42:03.927Z,152
2019-02-07T07:43:02.653Z,152
2019-02-07T07:44:01.278Z,148
2019-02-07T07:44:59.891Z,144
2019-02-07T07:45:58.530Z,144
2019-02-07T07:46:57.095Z,148
2019-02-07T07:47:55.651Z,152
2019-02-07T07:48:54.174Z,156
2019-02-07T07:49:52.712Z,168
2019-02-07T07:50:51.306Z,184
2019-02-07T07:51:49.862Z,200
2019-02-07T07:52:48.772Z,220
2019-02-07T07:53:47.390Z,232
2019-02-07T07:54:45.933Z,248
2019-02-07T07:55:44.651Z,272
2019-02-07T07:56:43.178Z,316
2019-02-07T07:57:41.721Z,348
2019-02-07T07:58:40.265Z,360
2019-02-07T07:59:38.809Z,364
2019-02-07T08:00:37.435Z,376
2019-02-07T08:01:35.962Z,400
2019-02-07T08:02:34.534Z,436
2019-02-07T08:03:33.257Z,468
2019-02-07T08:04:31.813Z,492
2019-02-07T08:05:30.519Z,512
2019-02-07T08:06:29.276Z,528
2019-02-07T08:07:28.203Z,532
2019-02-07T08:08:27.017Z,524
2019-02-07T08:09:25.585Z,512
2019-02-07T08:10:24.209Z,500
2019-02-07T08:11:22.853Z,504
2019-02-07T08:12:21.404Z,508
2019-02-07T08:13:19.937Z,524
2019-02-07T08:14:18.470Z,548
2019-02-07T08:15:17.025Z,564
2019-02-07T08:16:15.572Z,560
2019-02-07T08:17:14.124Z,552
2019-02-07T08:18:12.655Z,540
2019-02-07T08:19:11.275Z,532
2019-02-07T08:20:09.890Z,532
2019-02-07T08:21:08.751Z,540
2019-02-07T08:22:07.335Z,540
2019-02-07T08:23:05.858Z,544
2019-02-07T08:24:04.394Z,552
2019-02-07T08:25:03.103Z,576
2019-02-07T08:26:01.757Z,596
2019-02-07T08:27:00.294Z,628
2019-02-07T08:27:58.849Z,660
2019-02-07T08:28:57.405Z,704
2019-02-07T08:29:55.937Z,744
2019-02-07T08:30:54.554Z,772
2019-02-07T08:31:53.201Z,784
2019-02-07T08:32:52.348Z,788
2019-02-07T08:33:50.913Z,792
2019-02-07T08:34:49.454Z,796
2019-02-07T08:35:48.002Z,780
2019-02-07T08:36:46.846Z,760
2019-02-07T08:37:45.425Z,728
2019-02-07T08:38:44.058Z,700
2019-02-07T08:39:43.090Z,704
2019-02-07T08:40:41.653Z,728
2019-02-07T08:41:40.231Z,764
2019-02-07T08:42:39.054Z,740
2019-02-07T08:43:37.629Z,700
2019-02-07T08:44:36.191Z,664
2019-02-07T08:45:35.043Z,652
2019-02-07T08:46:33.594Z,636
2019-02-07T08:47:32.148Z,648
2019-02-07T08:48:30.768Z,684
2019-02-07T08:49:29.304Z,720
2019-02-07T08:50:27.864Z,748
2019-02-07T08:51:26.402Z,804
2019-02-07T08:52:25.139Z,868
2019-02-07T08:53:23.779Z,932
2019-02-07T08:54:22.339Z,988
2019-02-07T08:55:21.944Z,1016
2019-02-07T08:56:19.633Z,1064
2019-02-07T08:57:18.250Z,1148
2019-02-07T08:58:16.748Z,1200
2019-02-07T08:59:15.351Z,1224
2019-02-07T09:00:13.906Z,1244
2019-02-07T09:01:12.414Z,1264
2019-02-07T09:02:11.205Z,1292
2019-02-07T09:03:09.755Z,1332
2019-02-07T09:04:08.359Z,1320
2019-02-07T09:05:07.172Z,1256
2019-02-07T09:06:05.702Z,1208
2019-02-07T09:07:04.371Z,1212
2019-02-07T09:08:02.935Z,1240
2019-02-07T09:09:01.470Z,1276
2019-02-07T09:10:00.091Z,1324
2019-02-07T09:10:58.651Z,1384
2019-02-07T09:11:57.339Z,1416
2019-02-07T09:12:55.971Z,1424
2019-02-07T09:13:54.533Z,1400
2019-02-07T09:14:53.151Z,1356
2019-02-07T09:15:51.753Z,1300
2019-02-07T09:16:50.220Z,1284
2019-02-07T09:17:48.827Z,1268
2019-02-07T09:18:47.412Z,1260
2019-02-07T09:19:45.950Z,1252
2019-02-07T09:20:44.514Z,1260
2019-02-07T09:21:43.155Z,1252
2019-02-07T09:22:41.689Z,1228
2019-02-07T09:23:40.259Z,1236
2019-02-07T09:24:38.783Z,1264
2019-02-07T09:25:37.490Z,1320
2019-02-07T09:26:36.175Z,1392
2019-02-07T09:27:34.911Z,1440
2019-02-07T09:28:33.495Z,1372
2019-02-07T09:29:32.061Z,1220
2019-02-07T09:30:30.699Z,1064
2019-02-07T09:31:29.279Z,952
2019-02-07T09:32:27.903Z,912
2019-02-07T09:33:26.931Z,944
2019-02-07T09:34:25.333Z,1064
2019-02-07T09:35:23.870Z,1220
2019-02-07T09:36:22.521Z,1372
2019-02-07T09:37:21.305Z,1468
2019-02-07T09:38:19.874Z,1496
2019-02-07T09:39:18.401Z,1448
2019-02-07T09:40:16.968Z,1424
2019-02-07T09:41:15.617Z,1408
2019-02-07T09:42:14.190Z,1444
2019-02-07T09:43:12.692Z,1484
2019-02-07T09:44:11.395Z,1448
2019-02-07T09:45:09.956Z,1452
2019-02-07T09:46:08.553Z,1608
2019-02-07T09:47:07.149Z,1652
2019-02-07T09:48:05.687Z,1584
2019-02-07T09:49:04.237Z,1512
2019-02-07T09:50:03.030Z,1532
2019-02-07T09:51:01.557Z,1644
2019-02-07T09:52:00.089Z,1836
2019-02-07T09:52:58.662Z,1976
2019-02-07T09:53:57.149Z,2076
2019-02-07T09:54:55.790Z,2172
2019-02-07T09:55:54.238Z,2344
2019-02-07T09:56:52.813Z,2560
2019-02-07T09:57:51.445Z,2616
2019-02-07T09:58:49.978Z,2588
2019-02-07T09:59:48.617Z,2592
2019-02-07T10:00:47.260Z,2536
2019-02-07T10:01:45.901Z,2316
2019-02-07T10:02:44.493Z,2104
2019-02-07T10:03:43.210Z,2136
2019-02-07T10:04:41.776Z,2232
2019-02-07T10:05:40.357Z,2336
2019-02-07T10:06:38.890Z,2508
2019-02-07T10:07:37.440Z,2648
2019-02-07T10:08:35.987Z,2624
2019-02-07T10:09:34.577Z,2588
2019-02-07T10:10:33.358Z,2568
2019-02-07T10:11:32.002Z,2544
2019-02-07T10:12:30.855Z,2448
2019-02-07T10:13:29.425Z,2320
2019-02-07T10:14:27.967Z,2276
2019-02-07T10:15:26.510Z,2364
2019-02-07T10:16:25.071Z,2460
2019-02-07T10:17:23.747Z,2460
2019-02-07T10:18:32.522Z,2476
2019-02-07T10:19:21.197Z,2448
2019-02-07T10:20:19.747Z,2396
2019-02-07T10:21:18.344Z,2348
2019-02-07T10:22:17.107Z,2356
2019-02-07T10:23:16.504Z,2396
2019-02-07T10:24:15.114Z,2460
2019-02-07T10:25:13.636Z,2376
2019-02-07T10:26:12.222Z,2224
2019-02-07T10:27:10.761Z,2060
2019-02-07T10:28:09.434Z,1976
2019-02-07T10:29:08.077Z,1756
2019-02-07T10:30:06.819Z,1668
2019-02-07T10:31:05.391Z,1684
2019-02-07T10:32:03.937Z,1612
2019-02-07T10:33:02.466Z,1408
2019-02-07T10:34:01.105Z,1316
2019-02-07T10:34:59.627Z,1392
2019-02-07T10:35:58.403Z,1488
2019-02-07T10:36:57.144Z,1496
2019-02-07T10:37:55.716Z,1252
2019-02-07T10:38:54.313Z,1084
2019-02-07T10:39:53.022Z,964
2019-02-07T10:40:51.572Z,1024
2019-02-07T10:41:50.125Z,1180
2019-02-07T10:42:48.872Z,1232
2019-02-07T10:43:47.455Z,1404
2019-02-07T10:44:46.019Z,1668
2019-02-07T10:45:44.559Z,2240
2019-02-07T10:46:43.094Z,2708
2019-02-07T10:47:41.650Z,3008
2019-02-07T10:48:44.334Z,3244
2019-02-07T10:49:38.772Z,3316
2019-02-07T10:50:37.330Z,3300
2019-02-07T10:51:35.893Z,3316
2019-02-07T10:52:34.575Z,3308
2019-02-07T10:53:33.244Z,3280
2019-02-07T10:54:31.818Z,3256
2019-02-07T10:55:30.507Z,3220
2019-02-07T10:56:29.101Z,3116
2019-02-07T10:57:27.803Z,2860
2019-02-07T10:58:26.290Z,2476
2019-02-07T10:59:25.172Z,2220
2019-02-07T11:00:23.732Z,2056
2019-02-07T11:01:22.334Z,1864
2019-02-07T11:02:21.097Z,1728
2019-02-07T11:03:19.683Z,1796
2019-02-07T11:04:18.228Z,2076
2019-02-07T11:05:16.739Z,2248
2019-02-07T11:06:15.315Z,2268
2019-02-07T11:07:13.837Z,2132
2019-02-07T11:08:12.431Z,2244
2019-02-07T11:09:10.959Z,2580
2019-02-07T11:10:09.644Z,2788
2019-02-07T11:11:08.264Z,2956
2019-02-07T11:12:06.896Z,3088
2019-02-07T11:13:05.496Z,3208
2019-02-07T11:14:04.105Z,3292
2019-02-07T11:15:02.899Z,3280
2019-02-07T11:16:01.442Z,3304
2019-02-07T11:16:59.984Z,3336
2019-02-07T11:17:58.688Z,3308
2019-02-07T11:18:57.442Z,3220
2019-02-07T11:19:56.024Z,2912
2019-02-07T11:20:54.550Z,2568
2019-02-07T11:23:36.906Z,2448
2019-02-07T11:24:35.476Z,2372
2019-02-07T11:25:34.005Z,2196
2019-02-07T11:26:32.559Z,1964
2019-02-07T11:27:31.099Z,2104
2019-02-07T11:28:29.656Z,2468
2019-02-07T11:29:28.203Z,2808
2019-02-07T11:30:26.895Z,2840
2019-02-07T11:31:25.558Z,2492
2019-02-07T11:32:24.096Z,2240
2019-02-07T11:33:22.763Z,2108
2019-02-07T11:34:21.400Z,2336
2019-02-07T11:35:19.933Z,2324
2019-02-07T11:36:18.743Z,2408
2019-02-07T11:37:17.442Z,2740
2019-02-07T11:38:16.035Z,2824
2019-02-07T11:39:14.819Z,2820
2019-02-07T11:40:13.418Z,3108
2019-02-07T11:41:12.149Z,3484
2019-02-07T11:42:10.723Z,3728
2019-02-07T11:43:09.307Z,3636
2019-02-07T11:44:07.831Z,3264
2019-02-07T11:45:06.390Z,2884
2019-02-07T11:46:04.978Z,2344
2019-02-07T11:47:05.289Z,1960
2019-02-07T11:48:02.407Z,1952
2019-02-07T11:49:06.677Z,2064
2019-02-07T11:49:59.655Z,2028
2019-02-07T11:50:58.269Z,1976
2019-02-07T11:51:56.880Z,2012
2019-02-07T11:52:55.505Z,2136
2019-02-07T11:53:54.013Z,2288
2019-02-07T11:54:52.664Z,2088
2019-02-07T11:55:51.466Z,1924
2019-02-07T11:56:50.027Z,1712
2019-02-07T11:57:48.643Z,1672
2019-02-07T11:58:47.384Z,1568
2019-02-07T11:59:45.918Z,1556
2019-02-07T12:00:44.475Z,1520
2019-02-07T12:01:43.032Z,1376
2019-02-07T12:02:41.606Z,1276
2019-02-07T12:03:40.146Z,1344
2019-02-07T12:04:38.691Z,1540
2019-02-07T12:05:37.342Z,1752
2019-02-07T12:06:35.891Z,1668
2019-02-07T12:07:34.492Z,1516
2019-02-07T12:08:33.281Z,1524
2019-02-07T12:09:31.804Z,1760
2019-02-07T12:10:30.337Z,1808
2019-02-07T12:11:29.096Z,1896
2019-02-07T12:12:27.664Z,1912
2019-02-07T12:13:26.261Z,2036
2019-02-07T12:14:24.798Z,2224
2019-02-07T12:15:23.384Z,1980
2019-02-07T12:16:22.040Z,1748
2019-02-07T12:17:22.934Z,1720
2019-02-07T12:18:19.380Z,1744
2019-02-07T12:21:58.041Z,1476
2019-02-07T12:22:56.821Z,1340
2019-02-07T12:23:55.387Z,1428
2019-02-07T12:24:53.951Z,1600
2019-02-07T12:25:52.471Z,1664
2019-02-07T12:36:02.899Z,1968
2019-02-07T12:37:01.433Z,1980
2019-02-07T12:38:00.001Z,2004
2019-02-07T12:38:58.575Z,1984
2019-02-07T12:39:57.128Z,1864
2019-02-07T12:40:55.676Z,1720
2019-02-07T12:41:54.187Z,1620
2019-02-07T12:42:53.173Z,1664
2019-02-07T12:43:51.844Z,1748
2019-02-07T12:44:50.447Z,1624
2019-02-07T12:45:48.948Z,1632
2019-02-07T12:46:47.524Z,1832
2019-02-07T12:47:46.134Z,1928
2019-02-07T12:48:44.679Z,2052
2019-02-07T12:49:43.490Z,2392
2019-02-07T12:50:42.104Z,2720
2019-02-07T12:51:40.699Z,2992
2019-02-07T12:52:39.396Z,3164
2019-02-07T12:53:37.930Z,3236
2019-02-07T12:54:36.629Z,3248
2019-02-07T12:55:35.247Z,3240
2019-02-07T12:56:33.872Z,3208
2019-02-07T12:57:32.405Z,3056
2019-02-07T12:58:31.049Z,2924
2019-02-07T12:59:29.743Z,2848
2019-02-07T13:00:28.345Z,2576
2019-02-07T13:01:26.942Z,2336
2019-02-07T13:02:25.593Z,2220
2019-02-07T13:03:24.133Z,1972
2019-02-07T13:04:22.720Z,1612
2019-02-07T13:05:21.240Z,1360
2019-02-07T13:06:19.945Z,1272
2019-02-07T13:07:18.512Z,1224
2019-02-07T13:08:17.011Z,1100
2019-02-07T13:09:15.555Z,1064
2019-02-07T13:10:14.090Z,1116
2019-02-07T13:11:12.664Z,1200
2019-02-07T13:12:11.467Z,1264
2019-02-07T13:13:10.004Z,1304
2019-02-07T13:14:08.675Z,1352
2019-02-07T13:15:07.505Z,1308
2019-02-07T13:16:06.022Z,1196
2019-02-07T13:17:04.545Z,1180
2019-02-07T13:18:03.187Z,1248
2019-02-07T13:19:01.825Z,1388
2019-02-07T13:20:00.475Z,1484
2019-02-07T13:20:59.165Z,1464
2019-02-07T13:21:57.711Z,1348
2019-02-07T13:22:56.285Z,1268
2019-02-07T13:23:55.113Z,1220
2019-02-07T13:24:53.600Z,1132
2019-02-07T13:25:52.210Z,992
2019-02-07T13:26:50.732Z,868
2019-02-07T13:27:49.253Z,860
2019-02-07T13:28:47.894Z,932
2019-02-07T13:29:46.414Z,1168
2019-02-07T13:30:45.279Z,1596
2019-02-07T13:31:43.808Z,1640
2019-02-07T13:32:43.265Z,1424
2019-02-07T13:33:41.895Z,1368
2019-02-07T13:34:40.505Z,1300
2019-02-07T13:35:39.251Z,900
2019-02-07T13:36:37.779Z,704
2019-02-07T13:37:36.370Z,732
2019-02-07T13:40:16.387Z,904
2019-02-07T13:41:14.935Z,980
2019-02-07T13:42:13.484Z,1104
2019-02-07T13:43:12.029Z,1120
2019-02-07T13:44:10.567Z,1188
2019-02-07T13:45:09.164Z,1152
2019-02-07T13:46:07.716Z,940
2019-02-07T13:47:06.243Z,780
2019-02-07T13:48:04.755Z,744
2019-02-07T13:49:03.399Z,816
2019-02-07T13:50:01.977Z,868
2019-02-07T13:51:00.644Z,808
2019-02-07T13:51:59.352Z,724
2019-02-07T13:52:57.911Z,816
2019-02-07T13:53:59.267Z,780
2019-02-07T13:54:55.151Z,724
2019-02-07T13:55:53.693Z,764
2019-02-07T13:56:52.250Z,872
2019-02-07T13:57:51.269Z,824
2019-02-07T13:58:49.839Z,736
2019-02-07T13:59:48.607Z,756
2019-02-07T14:00:47.255Z,892
2019-02-07T14:01:45.790Z,984
2019-02-07T14:02:44.445Z,988
2019-02-07T14:03:43.332Z,1020
2019-02-07T14:04:41.935Z,952
2019-02-07T14:05:40.560Z,848
2019-02-07T14:06:39.272Z,736
2019-02-07T14:07:39.783Z,716
2019-02-07T14:08:38.292Z,732
2019-02-07T14:09:35.385Z,812
2019-02-07T14:10:33.945Z,896
2019-02-07T14:11:32.533Z,860
2019-02-07T14:12:31.197Z,764
2019-02-07T14:13:29.874Z,716
2019-02-07T14:14:28.404Z,676
2019-02-07T14:15:27.001Z,616
2019-02-07T14:16:25.623Z,560
2019-02-07T14:17:24.214Z,516
2019-02-07T14:18:23.064Z,580
2019-02-07T14:19:21.702Z,672
2019-02-07T14:20:20.342Z,720
2019-02-07T14:21:18.935Z,728
2019-02-07T14:22:17.512Z,720
2019-02-07T14:23:16.051Z,736
2019-02-07T14:24:14.645Z,768
2019-02-07T14:25:13.232Z,820
2019-02-07T14:26:11.793Z,836
2019-02-07T14:27:10.833Z,824
2019-02-07T14:28:08.919Z,812
2019-02-07T14:29:07.619Z,804
2019-02-07T14:30:06.234Z,948
2019-02-07T14:31:06.240Z,1132
2019-02-07T14:32:03.729Z,1216
2019-02-07T14:33:02.245Z,1116
2019-02-07T14:34:00.876Z,924
2019-02-07T14:34:59.464Z,792
2019-02-07T14:35:58.063Z,684
2019-02-07T14:36:56.960Z,660
2019-02-07T14:37:55.545Z,632
2019-02-07T14:38:54.156Z,568
2019-02-07T14:39:52.814Z,564
2019-02-07T14:40:51.353Z,556
2019-02-07T14:41:50.068Z,552
2019-02-07T14:42:48.959Z,600
2019-02-07T14:43:47.681Z,656
2019-02-07T14:44:46.257Z,736
2019-02-07T14:45:44.908Z,828
2019-02-07T14:46:43.459Z,832
2019-02-07T14:47:42.097Z,800
2019-02-07T14:48:41.005Z,772
2019-02-07T14:49:39.638Z,784
2019-02-07T14:50:38.434Z,748
2019-02-07T14:51:37.181Z,692
2019-02-07T14:52:35.904Z,664
2019-02-07T14:53:34.530Z,652
2019-02-07T14:54:33.137Z,596
2019-02-07T14:55:31.763Z,544
2019-02-07T14:56:30.338Z,572
2019-02-07T14:57:29.132Z,624
2019-02-07T14:58:27.766Z,624
2019-02-07T14:59:26.251Z,544
2019-02-07T15:00:25.203Z,480
2019-02-07T15:01:23.874Z,472
2019-02-07T15:02:22.516Z,520
2019-02-07T15:03:21.110Z,604
2019-02-07T15:04:19.795Z,632
2019-02-07T15:05:18.740Z,552
2019-02-07T15:06:17.333Z,568
2019-02-07T15:07:15.931Z,500
2019-02-07T15:08:14.764Z,516
2019-02-07T15:09:13.182Z,476
2019-02-07T15:10:11.773Z,444
2019-02-07T15:11:10.513Z,388
2019-02-07T15:12:09.314Z,384
2019-02-07T15:13:07.990Z,396
2019-02-07T15:14:07.594Z,428
2019-02-07T15:15:05.386Z,440
2019-02-07T15:16:03.976Z,472
2019-02-07T15:17:02.496Z,504
2019-02-07T15:18:01.278Z,548
2019-02-07T15:18:59.838Z,580
2019-02-07T15:19:58.406Z,580
2019-02-07T15:20:57.026Z,572
2019-02-07T15:21:55.668Z,544
2019-02-07T15:22:54.147Z,536
2019-02-07T15:23:53.020Z,552
2019-02-07T15:24:51.596Z,576
2019-02-07T15:25:50.166Z,580
2019-02-07T15:26:48.793Z,584
2019-02-07T15:27:47.523Z,540
2019-02-07T15:28:46.084Z,532
2019-02-07T15:29:44.703Z,504
2019-02-07T15:30:43.434Z,500
2019-02-07T15:31:42.005Z,464
2019-02-07T15:32:40.614Z,488
2019-02-07T15:33:39.129Z,440
2019-02-07T15:34:37.742Z,492
2019-02-07T15:35:36.277Z,584
2019-02-07T15:36:35.044Z,624
2019-02-07T15:37:33.730Z,688
2019-02-07T15:38:32.310Z,728
2019-02-07T15:39:31.196Z,744
2019-02-07T15:40:29.824Z,820
2019-02-07T15:41:28.918Z,832
2019-02-07T15:42:27.661Z,788
2019-02-07T15:43:26.289Z,744
2019-02-07T15:44:24.837Z,704
2019-02-07T15:45:23.362Z,704
2019-02-07T15:46:22.014Z,744
2019-02-07T15:47:20.711Z,728
2019-02-07T15:48:19.722Z,640
2019-02-07T15:49:18.321Z,588
2019-02-07T15:50:16.994Z,616
2019-02-07T15:51:15.511Z,648
2019-02-07T15:52:14.085Z,720
2019-02-07T15:53:13.126Z,736
2019-02-07T15:54:12.002Z,716
2019-02-07T15:55:10.883Z,688
2019-02-07T15:56:09.625Z,656
2019-02-07T15:57:08.082Z,636
2019-02-07T15:58:06.869Z,624
2019-02-07T15:59:05.570Z,616
2019-02-07T16:00:04.123Z,608
2019-02-07T16:01:02.972Z,596
2019-02-07T16:02:02.795Z,592
2019-02-07T16:03:00.212Z,580
2019-02-07T16:03:58.740Z,564
2019-02-07T16:04:57.662Z,548
2019-02-07T16:05:56.264Z,540
2019-02-07T16:06:54.842Z,516
2019-02-07T16:07:53.721Z,484
2019-02-07T16:08:52.192Z,456
2019-02-07T16:09:50.832Z,428
2019-02-07T16:20:26.248Z,236
2019-02-07T16:21:24.774Z,216
2019-02-07T16:22:23.391Z,196
2019-02-07T16:23:40.197Z,168
2019-02-07T16:24:44.898Z,152
2019-02-07T16:25:43.537Z,136
2019-02-07T16:26:42.074Z,120
2019-02-07T16:30:31.561Z,80
2019-02-07T16:31:30.199Z,72
2019-02-07T16:32:28.751Z,68
2019-02-07T16:33:27.315Z,60
2019-02-07T16:34:26.010Z,52
2019-02-07T16:35:24.547Z,48
2019-02-07T16:36:23.381Z,44
2019-02-07T16:37:22.293Z,36
2019-02-07T16:38:20.978Z,32
2019-02-07T16:39:19.545Z,24
2019-02-07T16:40:18.537Z,24
2019-02-07T16:41:17.539Z,16
2019-02-07T16:42:15.826Z,16
2019-02-07T16:43:14.434Z,12
2019-02-07T16:44:13.138Z,12
2019-02-07T16:45:11.529Z,12
2019-02-07T16:46:10.280Z,12
2019-02-07T16:47:08.720Z,8
2019-02-07T16:48:07.623Z,8
2019-02-07T16:49:06.325Z,4
2019-02-07T16:50:04.948Z,8
2019-02-07T16:51:03.511Z,4
2019-02-07T16:52:02.197Z,4
2019-02-07T16:53:01.545Z,4
2019-02-07T16:53:59.231Z,4
2019-02-07T16:54:57.884Z,0
2019-02-07T16:55:56.411Z,4
2019-02-07T16:56:55.246Z,0
2019-02-07T16:57:53.920Z,4
2019-02-07T16:58:52.422Z,4
2019-02-07T16:59:51.149Z,0
2019-02-07T17:00:49.792Z,0
2019-02-07T17:01:48.325Z,0
2019-02-07T17:02:47.343Z,0
2019-02-07T17:03:46.167Z,0
2019-02-07T17:04:44.729Z,0
2019-02-07T17:05:43.306Z,0
2019-02-07T17:06:41.898Z,0
2019-02-07T17:07:40.414Z,0
2019-02-07T17:08:39.085Z,0
2019-02-07T17:09:37.897Z,0
2019-02-07T17:10:36.352Z,0
2019-02-07T17:11:35.212Z,0
2019-02-07T17:12:33.908Z,0
2019-02-07T17:13:32.407Z,0
2019-02-07T17:14:30.953Z,0
2019-02-07T17:15:29.636Z,0
2019-02-07T17:16:28.165Z,0
2019-02-07T17:17:26.665Z,0
2019-02-07T17:18:25.563Z,0
2019-02-07T17:19:24.125Z,0
2019-02-07T17:20:22.733Z,0
2019-02-07T17:21:21.400Z,0
2019-02-07T17:22:19.940Z,0
2019-02-07T17:23:18.563Z,0
2019-02-07T17:24:17.167Z,0
2019-02-07T17:25:15.767Z,0
2019-02-07T17:26:14.355Z,0
2019-02-07T17:27:12.922Z,0
2019-02-07T17:28:11.643Z,0
2019-02-07T17:29:10.211Z,0
2019-02-07T17:30:08.799Z,0
2019-02-07T17:31:07.543Z,0
2019-02-07T17:32:06.085Z,0
2019-02-07T17:33:04.661Z,0
2019-02-07T17:34:03.238Z,0
2019-02-07T17:35:01.784Z,0
2019-02-07T17:37:41.972Z,0
2019-02-07T17:38:40.534Z,0
2019-02-07T17:39:39.141Z,0
2019-02-07T17:40:37.715Z,0
2019-02-07T17:41:36.270Z,0
2019-02-07T17:42:34.854Z,0
2019-02-07T17:43:33.672Z,0
2019-02-07T17:44:32.239Z,0
2019-02-07T17:45:30.825Z,0
2019-02-07T17:46:29.464Z,0
2019-02-07T17:47:27.983Z,0
2019-02-07T17:48:26.563Z,0
2019-02-07T17:49:25.401Z,0
2019-02-07T17:50:23.986Z,0
2019-02-07T17:51:23.539Z,0
2019-02-07T17:52:21.409Z,0
2019-02-07T17:53:20.133Z,0
2019-02-07T17:54:19.264Z,0
2019-02-07T17:55:17.790Z,0
2019-02-07T17:56:16.410Z,0
2019-02-07T17:57:14.954Z,0
2019-02-07T17:58:13.633Z,0
2019-02-07T17:59:12.168Z,0
2019-02-07T18:00:10.809Z,0
2019-02-07T18:01:09.562Z,0
2019-02-07T18:02:08.147Z,0
2019-02-07T18:03:06.745Z,0
2019-02-07T18:04:05.493Z,0
2019-02-07T18:05:04.078Z,0
2019-02-07T18:06:02.661Z,0
2019-02-07T18:07:01.217Z,0
2019-02-07T18:07:59.966Z,0
2019-02-07T18:08:58.422Z,0
2019-02-07T18:09:57.056Z,0
2019-02-07T18:10:55.737Z,0
2019-02-07T18:11:54.377Z,0
2019-02-07T18:12:52.964Z,0
2019-02-07T18:13:51.679Z,0
2019-02-07T18:14:50.240Z,0
2019-02-07T18:15:48.807Z,0
2019-02-07T18:16:47.358Z,0
2019-02-07T18:17:45.939Z,0
2019-02-07T18:18:44.493Z,0
2019-02-07T18:19:43.401Z,0
2019-02-07T18:20:41.951Z,0
2019-02-07T18:21:40.559Z,0
2019-02-07T18:22:39.119Z,0
2019-02-07T18:23:37.882Z,0
2019-02-07T18:24:36.437Z,0
2019-02-07T18:25:35.012Z,0
2019-02-07T18:26:33.576Z,0
2019-02-07T18:27:32.263Z,0
2019-02-07T18:28:31.118Z,0
2019-02-07T18:29:29.923Z,0
2019-02-07T18:30:28.659Z,0
2019-02-07T18:31:27.650Z,0
2019-02-07T18:32:26.182Z,0
2019-02-07T18:33:24.908Z,0
2019-02-07T18:34:23.487Z,0
2019-02-07T18:38:02.961Z,0
2019-02-07T18:39:01.572Z,0
2019-02-07T18:40:00.321Z,0
2019-02-07T18:40:59.093Z,0
2019-02-07T18:41:58.052Z,0
2019-02-07T18:42:56.708Z,0
2019-02-07T18:43:55.566Z,0
2019-02-07T18:44:54.341Z,0
2019-02-07T18:45:53.048Z,0